ADDS METAR Data INFO
IDs: Format: Raw Decoded Include TAF

Data at: 2051 UTC 24 Jun 2018

KE11 242035Z AUTO 24009G19KT 10SM CLR 40/05 A2978 RMK AO2 LTG DSNT N T03980046
KE11 242015Z AUTO 27010G20KT 10SM CLR 40/03 A2978 RMK AO2 T03960032
KE11 241955Z AUTO 26014G24KT 10SM CLR 40/04 A2979 RMK AO2 T03950043
KE11 241935Z AUTO 24013G24KT 10SM CLR 39/04 A2979 RMK AO2 T03880043
KE11 241915Z AUTO 27015G20KT 10SM CLR 39/06 A2980 RMK AO2 T03850055
KE11 241855Z AUTO 23018KT 10SM CLR 38/07 A2981 RMK AO2 T03820065
KE11 241835Z AUTO 25012G22KT 10SM CLR 38/07 A2982 RMK AO2 T03770066
KE11 241815Z AUTO 24015G24KT 10SM CLR 37/06 A2982 RMK AO2 T03700064
KE11 241755Z AUTO 23016G24KT 10SM CLR 37/09 A2982 RMK AO2 T03650086 10365 20246
KE11 241735Z AUTO 25017G22KT 10SM CLR 36/10 A2982 RMK AO2 T03630095
KE11 241715Z AUTO 23013G23KT 10SM CLR 36/12 A2982 RMK AO2 T03590121
KE11 241655Z AUTO 22018G22KT 10SM CLR 35/13 A2982 RMK AO2 T03470127
KE11 241635Z AUTO 23014G19KT 10SM CLR 34/13 A2982 RMK AO2 T03410128
KE11 241615Z AUTO 22015KT 10SM CLR 33/14 A2982 RMK AO2 T03310138
KE11 241555Z AUTO 22016G21KT 10SM CLR 32/15 A2983 RMK AO2 T03200151
KE11 241535Z AUTO 21016G21KT 10SM CLR 31/17 A2984 RMK AO2 T03100168
KE11 241515Z AUTO 20013G19KT 10SM CLR 30/18 A2984 RMK AO2 T02970181
KE11 241455Z AUTO 20016G22KT 10SM CLR 29/18 A2984 RMK AO2 T02880181
KE11 241435Z AUTO 20016G23KT 10SM CLR 28/19 A2984 RMK AO2 T02800190
KE11 241415Z AUTO 21017G23KT 10SM CLR 27/19 A2983 RMK AO2 T02730191
KE11 241355Z AUTO 20016G24KT 10SM CLR 27/19 A2983 RMK AO2 T02670188
KE11 241335Z AUTO 19014G21KT 10SM CLR 26/19 A2983 RMK AO2 T02610189
KE11 241315Z AUTO 19014G21KT 10SM CLR 26/19 A2983 RMK AO2 T02560187
KE11 241255Z AUTO 19011G17KT 10SM CLR 25/19 A2983 RMK AO2 T02530186
KE11 241235Z AUTO 18011G20KT 10SM CLR 25/18 A2982 RMK AO2 T02500183
KE11 241215Z AUTO 18010G16KT 10SM CLR 25/18 A2981 RMK AO2 T02460181
KE11 241155Z AUTO 18009G17KT 10SM CLR 25/18 A2981 RMK AO2 T02500180 10292 20250
KE11 241135Z AUTO 18012G20KT 10SM CLR 25/18 A2980 RMK AO2 T02510177
KE11 241115Z AUTO 18012G17KT 10SM CLR 25/18 A2980 RMK AO2 T02530177
KE11 241055Z AUTO 18009KT 10SM CLR 25/18 A2980 RMK AO2 T02530177
KE11 241035Z AUTO 17012G16KT 10SM CLR 26/18 A2980 RMK AO2 T02590177
KE11 241015Z AUTO 17011KT 10SM CLR 26/18 A2980 RMK AO2 T02610177
KE11 240955Z AUTO 18013G20KT 10SM CLR 27/18 A2980 RMK AO2 T02650177
KE11 240935Z AUTO 17013G18KT 10SM CLR 27/18 A2980 RMK AO2 T02660176
KE11 240915Z AUTO 17016G22KT 10SM CLR 28/18 A2980 RMK AO2 T02750175
KE11 240855Z AUTO 16012G20KT 10SM CLR 28/18 A2981 RMK AO2 T02750175
KE11 240835Z AUTO 16013G17KT 10SM CLR 28/17 A2981 RMK AO2 T02770172
KE11 240815Z AUTO 17011G16KT 10SM CLR 28/17 A2980 RMK AO2 T02790171
KE11 240755Z AUTO 16012G16KT 10SM CLR 28/17 A2981 RMK AO2 T02810170
KE11 240735Z AUTO 16011G16KT 10SM CLR 28/17 A2981 RMK AO2 T02830165
KE11 240715Z AUTO 16011KT 10SM CLR 29/16 A2981 RMK AO2 T02850164
KE11 240655Z AUTO 16010G17KT 10SM CLR 29/17 A2981 RMK AO2 T02920165
KE11 240635Z AUTO 17009G17KT 10SM CLR 29/17 A2980 RMK AO2 T02870165
KE11 240615Z AUTO 17007KT 10SM CLR 28/17 A2980 RMK AO2 T02770168
KE11 240555Z AUTO 16007KT 10SM CLR 28/17 A2980 RMK AO2 T02810169 10379 20278
KE11 240535Z AUTO 17009KT 10SM CLR 29/17 A2979 RMK AO2 T02880165
KE11 240515Z AUTO 17007KT 10SM CLR 29/16 A2978 RMK AO2 T02850160
KE11 240455Z AUTO 18009KT 10SM CLR 29/15 A2979 RMK AO2 T02900151 403840233
KE11 240435Z AUTO 17007G14KT 10SM CLR 29/14 A2978 RMK AO2 T02940143
KE11 240415Z AUTO 16008KT 10SM CLR 29/12 A2977 RMK AO2 T02850117
KE11 240355Z AUTO 15004KT 10SM CLR 28/13 A2976 RMK AO2 T02800132
KE11 240335Z AUTO 15004KT 10SM CLR 29/13 A2975 RMK AO2 T02910125
KE11 240315Z AUTO 15005KT 10SM CLR 29/14 A2975 RMK AO2 T02930136
KE11 240255Z AUTO 13005KT 10SM CLR 30/15 A2975 RMK AO2 T02950147
KE11 240235Z AUTO 14005KT 10SM CLR 31/14 A2975 RMK AO2 T03060141
KE11 240215Z AUTO 13005KT 10SM CLR 31/15 A2975 RMK AO2 T03140151
KE11 240155Z AUTO 13005KT 10SM CLR 33/15 A2975 RMK AO2 LTG DSNT E T03250145
KE11 240135Z AUTO 13005KT 10SM CLR 34/14 A2974 RMK AO2 LTG DSNT SE T03410141
KE11 240120Z AUTO 11004KT 10SM CLR 36/14 A2974 RMK AO2 T03580137
KE11 240055Z AUTO 00000KT 10SM CLR 37/11 A2974 RMK AO2 LTG DSNT E T03730111
KE11 240035Z AUTO 00000KT 10SM CLR 37/11 A2974 RMK AO2 T03730111
KE11 240015Z AUTO 00000KT 10SM CLR 38/11 A2975 RMK AO2 LTG DSNT E T03760113
KE11 232355Z AUTO 00000KT 10SM CLR 38/12 A2975 RMK AO2 T03780115 10384 20339
KE11 232335Z AUTO 12003KT 10SM CLR 38/11 A2976 RMK AO2 LTG DSNT E T03800112
KE11 232315Z AUTO 11003KT 10SM CLR 38/12 A2976 RMK AO2 T03820116
KE11 232255Z AUTO 14003KT 10SM CLR 38/11 A2976 RMK AO2 T03800112
KE11 232235Z AUTO 09007KT 10SM CLR 38/12 A2977 RMK AO2 T03820124
KE11 232215Z AUTO 00000KT 10SM CLR 38/11 A2977 RMK AO2 T03810112
KE11 232155Z AUTO 03003KT 10SM CLR 38/12 A2978 RMK AO2 T03800118
KE11 232135Z AUTO 34005KT 10SM CLR 38/12 A2978 RMK AO2 T03800115
KE11 232115Z AUTO 00000KT 10SM CLR 38/10 A2978 RMK AO2 T03750103
KE11 232055Z AUTO 09004KT 10SM CLR 37/12 A2979 RMK AO2 T03730117
KE11 232035Z AUTO 09005KT 10SM CLR 37/13 A2979 RMK AO2 T03700127
KE11 232015Z AUTO 00000KT 10SM CLR 37/13 A2979 RMK AO2 T03680127
KE11 231955Z AUTO 00000KT 10SM CLR 36/13 A2980 RMK AO2 T03610127
KE11 231935Z AUTO 33005KT 10SM CLR 36/13 A2980 RMK AO2 T03550128
KE11 231915Z AUTO 00000KT 10SM CLR 35/13 A2980 RMK AO2 T03540125
KE11 231855Z AUTO 28004KT 10SM CLR 35/13 A2981 RMK AO2 T03460126
KE11 231835Z AUTO 00000KT 10SM CLR 34/13 A2981 RMK AO2 T03440130
KE11 231815Z AUTO 15005KT 10SM CLR 34/14 A2981 RMK AO2 T03430135
KE11 231755Z AUTO 27004KT 10SM CLR 34/14 A2982 RMK AO2 T03380136 10338 20233
KE11 231735Z AUTO 25004KT 10SM CLR 34/13 A2982 RMK AO2 T03350126
KE11 231715Z AUTO 27006KT 10SM CLR 34/14 A2982 RMK AO2 T03370140
KE11 231655Z AUTO 00000KT 10SM CLR 33/13 A2983 RMK AO2 T03290134
KE11 231635Z AUTO 25004KT 10SM CLR 32/14 A2983 RMK AO2 T03240140
KE11 231615Z AUTO 26004KT 10SM CLR 32/14 A2982 RMK AO2 T03210138
KE11 231555Z AUTO 25010G16KT 210V270 10SM CLR 32/15 A2982 RMK AO2 T03170149
KE11 231535Z AUTO 21007KT 10SM CLR 31/17 A2982 RMK AO2 T03070170
KE11 231520Z AUTO 21008KT 10SM CLR 30/18 A2982 RMK AO2 T03000175
KE11 231455Z AUTO 00000KT 10SM CLR 29/18 A2984 RMK AO2 T02860180
KE11 231435Z AUTO 00000KT 10SM CLR 28/18 A2984 RMK AO2 T02820183
KE11 231415Z AUTO 21010G18KT 10SM CLR 27/18 A2980 RMK AO2 T02730181
KE11 231355Z AUTO 21012G22KT 10SM CLR 26/18 A2979 RMK AO2 T02640182
KE11 231335Z AUTO 21016G21KT 10SM CLR 26/18 A2979 RMK AO2 T02550182
KE11 231315Z AUTO 20010G20KT 10SM CLR 25/18 A2979 RMK AO2 T02480182
KE11 231255Z AUTO 20014G18KT 10SM CLR 24/18 A2978 RMK AO2 T02410181
KE11 231235Z AUTO 20011G18KT 10SM CLR 24/18 A2978 RMK AO2 T02360180
KE11 231215Z AUTO 19012G19KT 10SM CLR 23/18 A2977 RMK AO2 T02330177
KE11 231155Z AUTO 19014G18KT 10SM CLR 23/18 A2976 RMK AO2 T02340175 10273 20234
KE11 231135Z AUTO 19013G21KT 10SM CLR 24/18 A2976 RMK AO2 T02370175
KE11 231115Z AUTO 19017G22KT 10SM CLR 24/17 A2976 RMK AO2 T02380174
KE11 231055Z AUTO 19015G20KT 10SM CLR 24/17 A2976 RMK AO2 T02380173
KE11 231035Z AUTO 20013G19KT 10SM CLR 24/17 A2977 RMK AO2 T02400172
KE11 231015Z AUTO 20013G19KT 10SM CLR 24/17 A2976 RMK AO2 T02420172
KE11 230955Z AUTO 20012G19KT 10SM CLR 24/17 A2977 RMK AO2 T02430172
KE11 230935Z AUTO 21010G18KT 10SM CLR 25/17 A2977 RMK AO2 T02470171
KE11 230915Z AUTO 20011G19KT 10SM CLR 25/17 A2976 RMK AO2 T02500171
KE11 230855Z AUTO 20012G21KT 10SM CLR 25/17 A2976 RMK AO2 T02510171